Ramore, Canada
Current Conditions -  °F | °C
As of 4:00 PM on Monday 24 Nov 2014 (Local Time) from CYTS Reporting Station
Light Snow Light Snow  
Wind Chill: -5°   Ceiling: 500
Heat Index:   Visibility: 1.2mi
Dew Point:   Wind: 13mph
Humidity: 100%   Direction: 300°WNW
Pressure: 28.93"   Gusts: NA
Location:  48.42°N, 80.32°W
Report Text: CYTS 242100Z 30011KT 1 1/4SM -SN BR BKN005 OVC010 00/M00 A2893 RMK SF6NS2 VIS VRB 1-11/2 CIG RAG PRERR PRESRR SLP806
Loading
Personal Weather Stations






























Interactive Weather Map New forecast layout! Learn more

10-Day Weather Forecast

Advertisements
Track Severe Weather on mobile